VOBG/BLR METAR and TAF weather

Enter ICAO airport designator
Station Type Date Time Source
VOBG METAR 2019/02/16 07:30 UTC NOAA

VOBG 160730Z VRB03KT 6000 SCT012 29/17 Q1017


Station Type Date Time Source
VOBG Decoded METAR 2019/02/16 07:30 UTC NOAA

Bangalore / Hindustan, India (VOBG) 12-57N 077-40E
Feb 16, 2019 - 02:30 AM EST / 2019.02.16 0730 UTC
Wind: Variable at 3 MPH (3 KT):0
Visibility: 3 mile(s):0
Sky conditions: partly cloudy
Temperature: 84 F (29 C)
Dew Point: 62 F (17 C)
Relative Humidity: 48%
Pressure (altimeter): 30.03 in. Hg (1017 hPa)
ob: VOBG 160730Z VRB03KT 6000 SCT012 29/17 Q1017
cycle: 7

Station Type Date Time Source
VOBG TAF 2018/07/15 00:00 UTC NOAA

VOBG 142300Z 1500/1509 27010KT 6000 SCT010 BKN080
TEMPO 1500/1503 5000 BR SCT008 BKN080


Example: see airport list